createdAt,value
2023-04-18T00:11:13.400Z,100712.72
2023-04-18T00:26:15.076Z,100719.25
2023-04-18T00:41:16.813Z,100722.19
2023-04-18T00:56:19.059Z,100719.81
2023-04-18T01:11:20.691Z,100709.53
2023-04-18T01:26:22.357Z,100718.88
2023-04-18T01:41:24.067Z,100713.16
2023-04-18T01:56:25.738Z,100697.69
2023-04-18T02:11:27.430Z,100700.84
2023-04-18T02:26:29.101Z,100685.59
2023-04-18T02:41:30.842Z,100701.50
2023-04-18T02:56:32.504Z,100697.78
2023-04-18T03:11:34.125Z,100694.94
2023-04-18T03:26:36.116Z,100707.34
2023-04-18T03:41:37.962Z,100722.41
2023-04-18T03:56:40.421Z,100727.56
2023-04-18T04:11:42.075Z,100731.94
2023-04-18T04:26:43.822Z,100737.09
2023-04-18T04:41:45.642Z,100759.38
2023-04-18T04:56:47.313Z,100760.22
2023-04-18T05:11:49.026Z,100777.31
2023-04-18T05:26:50.768Z,100789.44
2023-04-18T05:41:52.563Z,100794.16
2023-04-18T05:56:54.999Z,100801.72
2023-04-18T06:11:56.658Z,100800.41
2023-04-18T06:26:58.402Z,100826.75
2023-04-18T06:42:00.052Z,100827.97
2023-04-18T06:57:01.792Z,100837.19
2023-04-18T07:12:03.611Z,100835.88
2023-04-18T07:27:06.248Z,100850.25
2023-04-18T07:42:07.953Z,100850.72
2023-04-18T07:57:09.653Z,100853.50
2023-04-18T08:12:11.327Z,100856.47
2023-04-18T08:27:13.081Z,100864.81
2023-04-18T08:42:19.784Z,100871.47
2023-04-18T08:57:21.434Z,100874.63
2023-04-18T09:12:25.030Z,100876.09
2023-04-18T09:27:26.703Z,100877.59
2023-04-18T09:42:36.235Z,100873.06
2023-04-18T09:57:39.505Z,100878.91
2023-04-18T10:12:41.838Z,100879.53
2023-04-18T10:27:49.272Z,100877.69
2023-04-18T10:42:53.903Z,100887.44
2023-04-18T10:57:57.130Z,100888.25
2023-04-18T11:12:58.921Z,100890.75
2023-04-18T11:28:02.284Z,100893.44
2023-04-18T11:43:06.238Z,100886.22
2023-04-18T11:58:07.906Z,100884.00
2023-04-18T12:13:09.591Z,100881.78
2023-04-18T12:28:15.869Z,100890.50
2023-04-18T12:43:18.368Z,100893.34
2023-04-18T12:58:20.040Z,100893.81
2023-04-18T13:13:21.727Z,100882.91
2023-04-18T13:28:23.512Z,100877.19
2023-04-18T13:43:25.322Z,100862.09
2023-04-18T13:58:27.162Z,100859.88
2023-04-18T14:13:28.920Z,100844.59
2023-04-18T14:28:30.630Z,100836.56
2023-04-18T14:43:32.375Z,100835.22
2023-04-18T14:58:34.119Z,100836.22
2023-04-18T15:13:36.358Z,100813.91
2023-04-18T15:28:38.090Z,100811.88
2023-04-18T15:43:39.781Z,100819.28
2023-04-18T15:58:41.612Z,100822.78
2023-04-18T16:13:43.547Z,100820.28
2023-04-18T16:28:45.527Z,100826.84
2023-04-18T16:43:47.242Z,100806.41
2023-04-18T16:58:48.942Z,100811.94
2023-04-18T17:13:53.762Z,100829.88
2023-04-18T17:28:55.545Z,100821.22
2023-04-18T17:43:57.326Z,100821.22
2023-04-18T17:58:59.015Z,100826.75
2023-04-18T18:14:00.830Z,100826.94
2023-04-18T18:29:03.828Z,100820.91
2023-04-18T18:44:05.850Z,100832.31
2023-04-18T18:59:07.766Z,100845.72
2023-04-18T19:14:09.512Z,100855.41
2023-04-18T19:29:11.414Z,100856.81
2023-04-18T19:44:13.228Z,100872.44
2023-04-18T19:59:15.103Z,100884.75
2023-04-18T20:14:16.879Z,100887.78
2023-04-18T20:29:18.510Z,100884.81
2023-04-18T20:44:20.188Z,100895.91
2023-04-18T20:59:21.881Z,100912.53
2023-04-18T21:14:23.538Z,100909.19
2023-04-18T21:29:25.206Z,100915.75
2023-04-18T21:44:26.873Z,100902.41
2023-04-18T21:59:28.538Z,100905.66
2023-04-18T22:14:30.778Z,100905.97
2023-04-18T22:29:32.573Z,100877.22
2023-04-18T22:44:34.198Z,100868.22
2023-04-18T22:59:35.849Z,100855.34
2023-04-18T23:14:37.556Z,100845.34
2023-04-18T23:29:39.358Z,100841.31
2023-04-18T23:44:41.059Z,100835.69
2023-04-18T23:59:42.720Z,100807.69
